This is the latest recevied weather packets stored in our database for station/object IZ0CGP. If no packets are shown the sender has not sent any weather packets the latest 10 day(s).
| Time | Temp. | Humidity | Pressure | Rain* | Wind** | Luminosity | Snow |
|---|---|---|---|---|---|---|---|
| 1787802959 | 21.11° C | 85% | 1016.7 hPa | 0 mm | - | - | - |
| 1787801145 | 21.11° C | 84% | 1016.7 hPa | 0 mm | - | - | - |
| 1787799340 | 21.11° C | 82% | 1017.7 hPa | 0 mm | - | - | - |
| 1787797535 | 21.11° C | 82% | 1017.7 hPa | 0 mm | - | - | - |
| 1787795712 | 21.11° C | 82% | 1016.7 hPa | 0 mm | - | - | - |
| 1787793885 | 22.22° C | 78% | 1016.7 hPa | 0 mm | - | - | - |
| 1787792077 | 21.67° C | 80% | 1015.7 hPa | 0 mm | - | - | - |
| 1787790272 | 22.22° C | 78% | 1016.7 hPa | 0 mm | - | - | - |
| 1787788463 | 22.22° C | 78% | 1016.7 hPa | 0 mm | - | - | - |
| 1787786638 | 22.78° C | 77% | 1016.7 hPa | 0 mm | - | - | - |
| 1787784834 | 23.33° C | 78% | 1016.7 hPa | 0 mm | - | - | - |
| 1787783031 | 23.33° C | 79% | 1016.7 hPa | 0 mm | - | - | - |
| 1787781195 | 23.89° C | 78% | 1016.7 hPa | 0 mm | - | - | - |
| 1787779391 | 25° C | 76% | 1016.7 hPa | 0 mm | - | - | - |
| 1787777559 | 26.11° C | 72% | 1016.7 hPa | 0 mm | - | - | - |
| 1787775755 | 25.56° C | 72% | 1016.7 hPa | 0 mm | - | - | - |
| 1787773954 | 26.67° C | 70% | 1016.7 hPa | 0 mm | - | - | - |
| 1787772144 | 26.67° C | 68% | 1016.7 hPa | 0 mm | - | - | - |
| 1787770325 | 27.78° C | 68% | 1016.7 hPa | 0 mm | - | - | - |
| 1787768523 | 28.33° C | 65% | 1016.7 hPa | 0 mm | - | - | - |
| 1787766718 | 28.89° C | 63% | 1015.7 hPa | 0 mm | - | - | - |
| 1787764915 | 30.56° C | 59% | 1015.7 hPa | 0 mm | - | - | - |
| 1787763111 | 32.22° C | 55% | 1015.7 hPa | 0 mm | - | - | - |
| 1787761308 | 32.78° C | 52% | 1015.7 hPa | 0 mm | - | - | - |
| 1787759507 | 33.89° C | 49% | 1014.7 hPa | 0 mm | - | - | - |
* Rain latest hour (hover to see other rain measurements)
** Current wind speed in m/s (hover to see current wind gust speed)